createdAt,value
2018-12-11T00:01:35.684Z,70.60
2018-12-11T00:04:05.777Z,70.90
2018-12-11T00:06:35.418Z,70.68
2018-12-11T00:09:05.639Z,69.87
2018-12-11T00:11:38.279Z,70.94
2018-12-11T00:16:52.152Z,69.94
2018-12-11T00:19:20.998Z,70.16
2018-12-11T00:21:49.810Z,70.09
2018-12-11T00:24:19.190Z,71.06
2018-12-11T00:26:48.047Z,70.25
2018-12-11T00:29:18.047Z,70.32
2018-12-11T00:31:47.391Z,70.42
2018-12-11T00:34:16.320Z,70.70
2018-12-11T00:36:45.132Z,71.68
2018-12-11T00:39:14.274Z,69.97
2018-12-11T00:41:43.062Z,70.45
2018-12-11T00:44:11.883Z,69.83
2018-12-11T00:46:40.975Z,70.50
2018-12-11T00:49:12.416Z,70.48
2018-12-11T00:51:41.211Z,70.41
2018-12-11T00:54:10.073Z,70.69
2018-12-11T00:56:38.854Z,70.23
2018-12-11T00:59:07.959Z,69.56
2018-12-11T01:01:51.645Z,70.53
2018-12-11T01:04:20.903Z,70.13
2018-12-11T01:06:49.687Z,70.52
2018-12-11T01:09:18.539Z,69.57
2018-12-11T01:11:47.771Z,69.70
2018-12-11T01:14:16.599Z,69.48
2018-12-11T01:16:46.418Z,69.74
2018-12-11T01:19:30.368Z,70.65
2018-12-11T01:21:59.208Z,70.05
2018-12-11T01:24:28.064Z,69.55
2018-12-11T01:26:57.275Z,70.35
2018-12-11T01:29:26.146Z,70.27
2018-12-11T01:31:55.009Z,70.67
2018-12-11T01:34:24.312Z,70.72
2018-12-11T01:36:53.176Z,69.64
2018-12-11T01:39:21.991Z,69.80
2018-12-11T01:41:51.220Z,69.51
2018-12-11T01:44:20.040Z,69.51
2018-12-11T01:46:49.041Z,69.92
2018-12-11T01:49:18.309Z,70.02
2018-12-11T01:51:47.167Z,69.89
2018-12-11T01:54:19.447Z,69.65
2018-12-11T01:56:48.496Z,69.77
2018-12-11T01:59:17.477Z,70.35
2018-12-11T02:01:46.405Z,70.21
2018-12-11T02:04:15.208Z,70.18
2018-12-11T02:06:44.336Z,69.67
2018-12-11T02:09:14.374Z,69.57
2018-12-11T02:11:43.164Z,70.04
2018-12-11T02:14:12.490Z,70.73
2018-12-11T02:16:41.267Z,71.24
2018-12-11T02:19:10.122Z,71.58
2018-12-11T02:21:42.043Z,72.25
2018-12-11T02:24:10.153Z,71.41
2018-12-11T02:26:46.202Z,71.71
2018-12-11T02:29:15.005Z,71.78
2018-12-11T02:31:46.895Z,71.26
2018-12-11T02:34:16.228Z,70.79
2018-12-11T02:36:46.172Z,70.28
2018-12-11T02:39:15.016Z,70.91
2018-12-11T02:41:47.876Z,71.74
2018-12-11T02:44:16.720Z,71.08
2018-12-11T02:46:45.593Z,70.84
2018-12-11T02:49:14.520Z,71.38
2018-12-11T02:51:43.281Z,70.72
2018-12-11T02:54:12.444Z,71.33
2018-12-11T02:56:41.577Z,71.30
2018-12-11T02:59:27.956Z,72.01
2018-12-11T03:01:57.058Z,71.04
2018-12-11T03:04:25.910Z,71.53
2018-12-11T03:06:54.793Z,71.20
2018-12-11T03:20:53.079Z,71.63
2018-12-11T03:23:21.940Z,72.11
2018-12-11T03:25:50.767Z,73.03
2018-12-11T03:28:20.190Z,71.64
2018-12-11T03:30:49.052Z,72.07
2018-12-11T03:33:17.872Z,72.85
2018-12-11T03:35:46.889Z,72.55
2018-12-11T03:38:16.168Z,71.11
2018-12-11T03:40:45.021Z,71.47
2018-12-11T03:43:13.921Z,72.06
2018-12-11T03:45:49.122Z,72.06
2018-12-11T03:48:18.022Z,73.63
2018-12-11T03:50:46.865Z,73.39
2018-12-11T03:53:16.122Z,73.87
2018-12-11T03:55:44.926Z,74.17
2018-12-11T03:58:13.818Z,74.00
2018-12-11T04:00:42.664Z,74.28
2018-12-11T04:03:17.897Z,73.90
2018-12-11T04:05:46.680Z,74.31
2018-12-11T04:08:15.491Z,74.36
2018-12-11T04:10:44.330Z,74.18
2018-12-11T04:13:13.111Z,73.72
2018-12-11T04:15:41.942Z,74.00
2018-12-11T04:18:10.707Z,74.15
2018-12-11T04:20:39.458Z,73.54
2018-12-11T04:23:09.531Z,74.05
2018-12-11T04:25:38.350Z,74.13
2018-12-11T04:28:09.168Z,73.81
2018-12-11T04:30:37.945Z,73.84
2018-12-11T04:33:06.747Z,74.49
2018-12-11T04:35:35.586Z,74.07
2018-12-11T04:38:05.177Z,74.49
2018-12-11T04:40:33.971Z,73.76
2018-12-11T04:43:03.288Z,73.26
2018-12-11T04:45:32.104Z,73.28
2018-12-11T04:48:00.994Z,72.52
2018-12-11T04:50:30.053Z,72.00
2018-12-11T04:52:59.319Z,72.26
2018-12-11T04:55:28.188Z,71.99
2018-12-11T04:57:57.009Z,72.81
2018-12-11T05:00:25.817Z,72.76
2018-12-11T05:02:58.890Z,72.39
2018-12-11T05:05:32.421Z,72.16
2018-12-11T05:08:04.335Z,71.82
2018-12-11T05:10:45.713Z,71.95
2018-12-11T05:13:14.700Z,71.58
2018-12-11T05:15:43.621Z,71.32
2018-12-11T05:18:12.804Z,72.40
2018-12-11T05:20:41.735Z,71.98
2018-12-11T05:23:10.586Z,71.43
2018-12-11T05:25:42.578Z,71.93
2018-12-11T05:28:11.746Z,72.35
2018-12-11T05:30:40.606Z,72.20
2018-12-11T05:33:10.478Z,72.43
2018-12-11T05:35:39.447Z,73.59
2018-12-11T05:38:13.119Z,73.91
2018-12-11T05:40:41.964Z,73.59
2018-12-11T05:43:10.793Z,74.16
2018-12-11T05:45:39.650Z,73.93
2018-12-11T05:48:15.301Z,74.38
2018-12-11T05:50:44.163Z,74.90
2018-12-11T05:53:12.987Z,75.17
2018-12-11T05:55:41.796Z,74.86
2018-12-11T05:58:17.837Z,74.54
2018-12-11T06:00:46.726Z,74.64
2018-12-11T06:03:19.271Z,74.29
2018-12-11T06:05:48.126Z,74.76
2018-12-11T06:08:17.487Z,74.60
2018-12-11T06:10:51.211Z,74.56
2018-12-11T06:13:20.150Z,74.55
2018-12-11T06:15:53.619Z,74.28
2018-12-11T06:18:22.455Z,74.57
2018-12-11T06:20:53.261Z,74.14
2018-12-11T06:23:22.098Z,74.07
2018-12-11T06:25:51.002Z,74.09
2018-12-11T06:28:19.828Z,75.01
2018-12-11T06:30:49.140Z,74.72
2018-12-11T06:33:22.916Z,74.38
2018-12-11T06:35:52.289Z,73.98
2018-12-11T06:38:28.011Z,74.41
2018-12-11T06:40:56.892Z,74.03
2018-12-11T06:43:26.912Z,74.46
2018-12-11T06:45:56.070Z,74.74
2018-12-11T06:48:27.920Z,73.71
2018-12-11T06:50:56.752Z,73.01
2018-12-11T06:53:25.673Z,73.66
2018-12-11T06:55:54.574Z,73.23
2018-12-11T06:58:23.440Z,74.10
2018-12-11T07:00:52.313Z,73.78
2018-12-11T07:03:21.479Z,73.75
2018-12-11T07:05:56.807Z,72.93
2018-12-11T07:08:25.636Z,74.12
2018-12-11T07:10:54.828Z,74.46
2018-12-11T07:13:23.678Z,74.32
2018-12-11T07:15:52.587Z,73.64
2018-12-11T07:18:27.341Z,73.43
2018-12-11T07:20:56.165Z,73.66
2018-12-11T07:23:25.003Z,73.63
2018-12-11T07:25:53.838Z,74.29
2018-12-11T07:28:29.178Z,74.45
2018-12-11T07:30:58.070Z,73.60
2018-12-11T07:33:26.922Z,73.28
2018-12-11T07:35:59.684Z,74.06
2018-12-11T07:38:28.844Z,74.95
2018-12-11T07:40:57.695Z,75.81
2018-12-11T07:43:32.540Z,75.64
2018-12-11T07:46:02.331Z,74.85
2018-12-11T07:48:32.228Z,74.87
2018-12-11T07:51:06.402Z,75.48
2018-12-11T07:53:35.570Z,75.42
2018-12-11T07:58:44.342Z,75.65
2018-12-11T08:01:19.822Z,75.66
2018-12-11T08:03:49.872Z,75.00
2018-12-11T08:06:18.746Z,74.97
2018-12-11T08:08:57.736Z,74.59
2018-12-11T08:11:31.320Z,74.37
2018-12-11T08:14:00.217Z,73.90
2018-12-11T08:16:31.059Z,74.31
2018-12-11T08:19:01.141Z,74.33
2018-12-11T08:21:30.025Z,73.68
2018-12-11T08:23:59.225Z,74.49
2018-12-11T08:26:28.102Z,74.37
2018-12-11T08:29:08.512Z,74.17
2018-12-11T08:31:37.670Z,74.49
2018-12-11T08:34:12.726Z,74.07
2018-12-11T08:36:41.631Z,74.08
2018-12-11T08:39:10.818Z,73.79
2018-12-11T08:41:39.673Z,73.37
2018-12-11T08:44:09.244Z,73.67
2018-12-11T08:46:38.407Z,73.94
2018-12-11T08:49:12.059Z,73.68
2018-12-11T08:51:40.952Z,73.88
2018-12-11T08:54:15.459Z,73.90
2018-12-11T08:56:44.347Z,72.92
2018-12-11T08:59:24.064Z,73.55
2018-12-11T09:01:54.160Z,74.53
2018-12-11T09:04:23.021Z,73.63
2018-12-11T09:06:55.112Z,73.02
2018-12-11T09:09:24.046Z,73.67
2018-12-11T09:11:52.965Z,73.80
2018-12-11T09:14:21.892Z,75.33
2018-12-11T09:16:51.106Z,74.63
2018-12-11T09:19:20.786Z,75.41
2018-12-11T09:21:49.637Z,75.01
2018-12-11T09:24:19.748Z,74.02
2018-12-11T09:26:49.828Z,74.17
2018-12-11T09:29:18.739Z,74.70
2018-12-11T09:31:47.903Z,73.71
2018-12-11T09:34:18.231Z,72.42
2018-12-11T09:36:47.864Z,70.92
2018-12-11T09:39:17.567Z,70.24
2018-12-11T09:41:46.756Z,70.76
2018-12-11T09:44:15.757Z,70.40
2018-12-11T09:46:44.968Z,71.17
2018-12-11T09:49:17.367Z,72.52
2018-12-11T09:51:46.375Z,72.58
2018-12-11T09:54:15.640Z,71.97
2018-12-11T09:56:44.512Z,70.33
2018-12-11T09:59:13.367Z,71.44
2018-12-11T10:01:42.574Z,72.98
2018-12-11T10:04:11.479Z,72.80
2018-12-11T10:06:40.284Z,72.67
2018-12-11T10:09:10.477Z,71.96
2018-12-11T10:11:39.291Z,71.81
2018-12-11T10:14:12.950Z,70.75
2018-12-11T10:16:42.117Z,70.49
2018-12-11T10:19:10.997Z,70.59
2018-12-11T10:24:21.721Z,70.17
2018-12-11T10:26:50.857Z,69.94
2018-12-11T10:29:19.765Z,69.45
2018-12-11T10:31:54.005Z,68.89
2018-12-11T10:34:30.980Z,68.44
2018-12-11T10:37:00.464Z,69.18
2018-12-11T10:39:29.496Z,69.53
2018-12-11T10:41:59.413Z,69.34
2018-12-11T10:44:29.865Z,69.68
2018-12-11T10:46:58.743Z,69.86
2018-12-11T10:49:33.313Z,68.23
2018-12-11T10:52:03.299Z,68.01
2018-12-11T10:54:36.732Z,67.49
2018-12-11T10:57:05.711Z,67.55
2018-12-11T10:59:37.532Z,67.70
2018-12-11T11:02:11.382Z,66.11
2018-12-11T11:04:40.544Z,66.45
2018-12-11T11:07:10.157Z,64.91
2018-12-11T11:09:39.012Z,65.08
2018-12-11T11:12:07.935Z,65.03
2018-12-11T11:14:37.623Z,62.72
2018-12-11T11:17:06.523Z,61.52
2018-12-11T11:19:35.710Z,61.58
2018-12-11T11:22:08.058Z,61.76
2018-12-11T11:24:37.720Z,60.64
2018-12-11T11:27:07.047Z,61.27
2018-12-11T11:29:36.033Z,60.51
2018-12-11T11:32:07.308Z,59.84
2018-12-11T11:34:50.463Z,60.08
2018-12-11T11:37:19.406Z,60.26
2018-12-11T11:39:48.645Z,61.14
2018-12-11T11:44:54.400Z,62.12
2018-12-11T11:47:23.275Z,62.15
2018-12-11T11:49:52.054Z,62.22
2018-12-11T11:52:21.223Z,62.32
2018-12-11T11:54:50.088Z,63.48
2018-12-11T11:57:19.025Z,63.99
2018-12-11T11:59:48.771Z,63.66
2018-12-11T12:02:19.510Z,62.74
2018-12-11T12:04:48.530Z,63.22
2018-12-11T12:07:18.502Z,62.96
2018-12-11T12:09:49.889Z,62.14
2018-12-11T12:12:18.770Z,61.87
2018-12-11T12:14:49.169Z,62.86
2018-12-11T12:19:58.075Z,60.74
2018-12-11T12:22:27.316Z,61.13
2018-12-11T12:24:56.150Z,60.80
2018-12-11T12:27:26.383Z,60.71
2018-12-11T12:29:58.964Z,61.19
2018-12-11T12:32:27.842Z,61.26
2018-12-11T12:34:56.712Z,60.79
2018-12-11T12:40:06.508Z,60.41
2018-12-11T12:42:36.362Z,59.59
2018-12-11T12:45:05.695Z,59.75
2018-12-11T12:47:34.780Z,60.28
2018-12-11T12:50:05.837Z,59.17
2018-12-11T12:52:34.639Z,58.49
2018-12-11T12:55:05.079Z,58.18
2018-12-11T12:57:38.540Z,57.30
2018-12-11T13:00:08.995Z,57.10
2018-12-11T13:02:37.961Z,57.62
2018-12-11T13:05:09.631Z,57.77
2018-12-11T13:07:38.786Z,57.16
2018-12-11T13:10:08.142Z,56.80
2018-12-11T13:12:37.290Z,57.86
2018-12-11T13:15:08.788Z,58.08
2018-12-11T13:17:37.671Z,58.13
2018-12-11T13:20:08.185Z,58.33
2018-12-11T13:22:37.622Z,58.19
2018-12-11T13:25:06.741Z,58.73
2018-12-11T13:27:36.418Z,58.70
2018-12-11T13:30:06.857Z,58.42
2018-12-11T13:32:35.676Z,58.47
2018-12-11T13:35:05.047Z,58.17
2018-12-11T13:37:34.247Z,58.31
2018-12-11T13:40:05.090Z,58.43
2018-12-11T13:42:34.130Z,58.16
2018-12-11T13:45:04.539Z,59.57
2018-12-11T13:47:39.293Z,59.48
2018-12-11T13:50:10.874Z,59.58
2018-12-11T13:52:39.847Z,59.45
2018-12-11T13:55:09.336Z,58.99
2018-12-11T13:57:38.545Z,59.32
2018-12-11T14:00:13.218Z,59.86
2018-12-11T14:02:47.878Z,59.27
2018-12-11T14:05:17.268Z,58.81
2018-12-11T14:07:46.152Z,58.83
2018-12-11T14:10:15.262Z,59.03
2018-12-11T14:12:44.542Z,58.87
2018-12-11T14:15:13.415Z,59.00
2018-12-11T14:17:42.285Z,57.43
2018-12-11T14:20:12.444Z,58.52
2018-12-11T14:22:42.088Z,58.51
2018-12-11T14:25:10.942Z,58.49
2018-12-11T14:27:40.094Z,58.04
2018-12-11T14:30:17.317Z,58.56
2018-12-11T14:32:46.189Z,57.60
2018-12-11T14:35:15.834Z,57.59
2018-12-11T14:37:44.686Z,57.61
2018-12-11T14:40:14.128Z,57.56
2018-12-11T14:42:47.902Z,57.35
2018-12-11T14:45:16.801Z,57.61
2018-12-11T14:47:47.131Z,57.91
2018-12-11T14:50:16.002Z,57.95
2018-12-11T14:52:45.312Z,58.03
2018-12-11T14:55:14.526Z,57.43
2018-12-11T14:57:48.935Z,58.29
2018-12-11T15:00:20.488Z,57.78
2018-12-11T15:02:49.554Z,58.77
2018-12-11T15:07:52.920Z,58.71
2018-12-11T15:10:23.038Z,59.50
2018-12-11T15:12:54.167Z,59.71
2018-12-11T15:15:23.517Z,60.02
2018-12-11T15:17:53.236Z,59.88
2018-12-11T15:20:22.105Z,60.20
2018-12-11T15:24:22.335Z,60.87
2018-12-11T15:26:51.311Z,63.32
2018-12-11T15:29:20.127Z,63.98
2018-12-11T15:31:49.818Z,64.43
2018-12-11T15:34:19.061Z,64.92
2018-12-11T15:36:50.595Z,65.39
2018-12-11T15:39:19.487Z,65.56
2018-12-11T15:41:52.264Z,65.15
2018-12-11T15:44:21.199Z,65.32
2018-12-11T15:46:53.512Z,67.43
2018-12-11T15:49:23.188Z,68.07
2018-12-11T15:54:31.941Z,68.71
2018-12-11T15:57:05.392Z,69.21
2018-12-11T15:59:34.257Z,70.44
2018-12-11T16:02:08.926Z,71.32
2018-12-11T16:04:37.801Z,72.00
2018-12-11T16:07:11.844Z,72.84
2018-12-11T16:09:40.966Z,73.27
2018-12-11T16:12:10.859Z,73.97
2018-12-11T16:14:39.704Z,74.24
2018-12-11T16:17:08.849Z,74.35
2018-12-11T16:22:17.446Z,75.35
2018-12-11T16:24:47.089Z,73.45
2018-12-11T16:27:16.280Z,73.44
2018-12-11T16:29:45.142Z,73.50
2018-12-11T16:32:21.666Z,71.90
2018-12-11T16:34:52.311Z,71.70
2018-12-11T16:37:21.742Z,71.77
2018-12-11T16:39:52.914Z,72.02
2018-12-11T16:42:24.225Z,72.05
2018-12-11T16:44:53.487Z,72.31
2018-12-11T16:47:25.198Z,73.11
2018-12-11T16:50:00.627Z,73.54
2018-12-11T16:52:29.898Z,74.51
2018-12-11T16:54:58.747Z,74.26
2018-12-11T16:57:27.964Z,74.15
2018-12-11T16:59:57.068Z,72.90
2018-12-11T17:02:27.203Z,73.76
2018-12-11T17:05:02.760Z,72.70
2018-12-11T17:07:32.042Z,73.96
2018-12-11T17:10:01.185Z,74.00
2018-12-11T17:12:30.729Z,74.06
2018-12-11T17:15:01.747Z,75.09
2018-12-11T17:17:31.043Z,75.35
2018-12-11T17:20:08.322Z,75.68
2018-12-11T17:22:38.262Z,75.86
2018-12-11T17:25:08.135Z,75.69
2018-12-11T17:27:37.753Z,75.86
2018-12-11T17:30:07.860Z,74.55
2018-12-11T17:32:37.404Z,75.13
2018-12-11T17:35:08.588Z,75.80
2018-12-11T17:37:40.417Z,76.57
2018-12-11T17:40:12.636Z,76.87
2018-12-11T17:42:43.125Z,75.12
2018-12-11T17:45:12.389Z,75.72
2018-12-11T17:47:43.435Z,75.31
2018-12-11T17:50:13.116Z,74.10
2018-12-11T17:52:42.766Z,74.34
2018-12-11T17:55:12.738Z,75.08
2018-12-11T17:57:43.536Z,75.09
2018-12-11T18:00:13.391Z,74.65
2018-12-11T18:02:43.711Z,75.32
2018-12-11T18:05:13.365Z,76.04
2018-12-11T18:07:42.853Z,76.07
2018-12-11T18:12:56.875Z,76.81
2018-12-11T18:15:26.589Z,77.20
2018-12-11T18:17:56.079Z,77.31
2018-12-11T18:20:26.077Z,77.07
2018-12-11T18:22:55.542Z,76.62
2018-12-11T18:25:29.109Z,77.20
2018-12-11T18:27:59.498Z,77.42
2018-12-11T18:30:29.519Z,77.31
2018-12-11T18:32:59.552Z,78.02
2018-12-11T18:35:29.366Z,77.39
2018-12-11T18:37:59.221Z,77.55
2018-12-11T18:40:30.590Z,77.31
2018-12-11T18:43:00.291Z,78.31
2018-12-11T18:45:30.443Z,77.98
2018-12-11T18:48:00.791Z,77.75
2018-12-11T18:50:30.533Z,78.30
2018-12-11T18:53:01.024Z,78.19
2018-12-11T18:55:31.429Z,78.12
2018-12-11T18:58:05.525Z,77.87
2018-12-11T19:00:35.571Z,78.10
2018-12-11T19:03:07.302Z,77.79
2018-12-11T19:05:38.125Z,78.83
2018-12-11T19:08:08.124Z,78.47
2018-12-11T19:10:38.422Z,78.55
2018-12-11T19:13:08.988Z,77.34
2018-12-11T19:18:23.118Z,78.23
2018-12-11T19:20:53.328Z,78.58
2018-12-11T19:23:38.112Z,78.58
2018-12-11T19:26:08.391Z,78.12
2018-12-11T19:28:38.308Z,77.25
2018-12-11T19:31:07.892Z,77.38
2018-12-11T19:33:38.234Z,78.22
2018-12-11T19:36:08.165Z,76.45
2018-12-11T19:38:39.659Z,76.82
2018-12-11T19:43:45.631Z,76.53
2018-12-11T19:46:15.259Z,77.19
2018-12-11T19:48:49.803Z,77.12
2018-12-11T19:51:20.359Z,77.96
2018-12-11T19:53:50.946Z,78.26
2018-12-11T19:56:21.073Z,78.44
2018-12-11T19:58:56.679Z,77.53
2018-12-11T20:01:26.493Z,78.01
2018-12-11T20:03:56.540Z,78.53
2018-12-11T20:06:27.516Z,78.75
2018-12-11T20:08:58.008Z,77.86
2018-12-11T20:11:36.384Z,78.00
2018-12-11T20:14:07.407Z,77.07
2018-12-11T20:16:38.263Z,77.64
2018-12-11T20:19:07.895Z,77.91
2018-12-11T20:21:38.058Z,76.89
2018-12-11T20:24:17.021Z,76.12
2018-12-11T20:26:47.035Z,75.61
2018-12-11T20:29:20.188Z,76.37
2018-12-11T20:31:53.168Z,76.32
2018-12-11T20:34:28.251Z,76.82
2018-12-11T20:36:59.087Z,76.39
2018-12-11T20:39:30.555Z,76.19
2018-12-11T20:42:07.208Z,76.96
2018-12-11T20:44:37.001Z,76.71
2018-12-11T20:47:07.426Z,76.48
2018-12-11T20:49:37.090Z,77.70
2018-12-11T20:52:06.799Z,77.34
2018-12-11T20:54:46.650Z,76.85
2018-12-11T20:57:17.136Z,77.46
2018-12-11T20:59:48.894Z,78.62
2018-12-11T21:02:18.598Z,78.27
2018-12-11T21:04:49.104Z,80.16
2018-12-11T21:07:19.689Z,81.57
2018-12-11T21:09:51.209Z,82.40
2018-12-11T21:12:21.769Z,83.86
2018-12-11T21:14:51.364Z,84.25
2018-12-11T21:17:22.023Z,84.51
2018-12-11T21:19:57.917Z,84.58
2018-12-11T21:22:27.962Z,84.84
2018-12-11T21:24:58.065Z,84.92
2018-12-11T21:27:30.119Z,85.07
2018-12-11T21:29:59.657Z,84.86
2018-12-11T21:32:34.867Z,84.73
2018-12-11T21:35:05.741Z,84.61
2018-12-11T21:37:35.353Z,84.31
2018-12-11T21:40:07.526Z,84.05
2018-12-11T21:42:38.427Z,82.96
2018-12-11T21:45:07.947Z,82.64
2018-12-11T21:47:53.030Z,82.60
2018-12-11T21:50:22.040Z,83.13
2018-12-11T21:52:52.081Z,83.03
2018-12-11T21:55:21.269Z,83.04
2018-12-11T21:57:50.999Z,82.92
2018-12-11T22:02:45.490Z,82.47
2018-12-11T22:05:14.354Z,82.78
2018-12-11T22:07:43.274Z,82.89
2018-12-11T22:10:12.125Z,82.15
2018-12-11T22:12:46.203Z,82.31
2018-12-11T22:15:15.212Z,82.42
2018-12-11T22:17:44.430Z,81.80
2018-12-11T22:20:15.423Z,81.17
2018-12-11T22:22:46.016Z,82.08
2018-12-11T22:25:15.426Z,82.54
2018-12-11T22:27:44.793Z,82.65
2018-12-11T22:30:13.698Z,82.50
2018-12-11T22:37:29.238Z,81.97
2018-12-11T22:39:59.326Z,81.81
2018-12-11T22:45:03.615Z,81.91
2018-12-11T22:47:32.495Z,81.58
2018-12-11T22:50:03.379Z,81.60
2018-12-11T22:52:32.250Z,80.22
2018-12-11T22:55:01.421Z,80.37
2018-12-11T22:57:30.973Z,80.51
2018-12-11T22:59:59.886Z,80.20
2018-12-11T23:02:35.462Z,80.36
2018-12-11T23:05:04.897Z,80.86
2018-12-11T23:07:38.698Z,81.16
2018-12-11T23:12:38.802Z,81.15
2018-12-11T23:15:08.405Z,81.39
2018-12-11T23:17:37.549Z,81.29
2018-12-11T23:20:06.452Z,81.35
2018-12-11T23:22:35.537Z,80.96
2018-12-11T23:25:09.593Z,81.10
2018-12-11T23:27:38.956Z,80.80
2018-12-11T23:30:08.353Z,80.68
2018-12-11T23:32:41.067Z,80.55
2018-12-11T23:37:44.344Z,81.08
2018-12-11T23:40:13.668Z,81.01
2018-12-11T23:42:43.244Z,80.91
2018-12-11T23:45:16.071Z,80.84
2018-12-11T23:47:45.019Z,80.74
2018-12-11T23:50:13.868Z,80.60
2018-12-11T23:52:47.524Z,80.47
2018-12-11T23:55:16.335Z,80.66
2018-12-11T23:57:45.443Z,81.06
